createdAt,value
2019-04-03T00:01:23.992Z,41.40
2019-04-03T00:03:53.789Z,41.40
2019-04-03T00:06:23.806Z,42.10
2019-04-03T00:08:53.951Z,41.30
2019-04-03T00:11:23.832Z,41.30
2019-04-03T00:13:53.639Z,41.30
2019-04-03T00:16:24.081Z,41.20
2019-04-03T00:18:54.301Z,41.20
2019-04-03T00:21:24.444Z,41.10
2019-04-03T00:23:54.607Z,41.10
2019-04-03T00:26:24.577Z,41.10
2019-04-03T00:28:54.806Z,41.70
2019-04-03T00:31:25.206Z,41.10
2019-04-03T00:33:56.880Z,41.00
2019-04-03T00:36:26.616Z,40.90
2019-04-03T00:38:56.706Z,41.10
2019-04-03T00:41:26.453Z,40.90
2019-04-03T00:43:56.266Z,41.00
2019-04-03T00:46:26.095Z,41.00
2019-04-03T00:48:56.321Z,40.90
2019-04-03T00:51:27.954Z,40.80
2019-04-03T00:53:59.277Z,40.90
2019-04-03T00:56:29.069Z,41.00
2019-04-03T00:58:58.877Z,40.40
2019-04-03T01:01:28.778Z,40.80
2019-04-03T01:04:03.313Z,40.70
2019-04-03T01:06:41.220Z,40.70
2019-04-03T01:09:18.495Z,40.70
2019-04-03T01:11:48.752Z,40.70
2019-04-03T01:14:18.750Z,40.70
2019-04-03T01:16:48.980Z,40.70
2019-04-03T01:19:18.822Z,40.80
2019-04-03T01:21:48.655Z,40.70
2019-04-03T01:24:18.699Z,40.60
2019-04-03T01:26:50.105Z,40.60
2019-04-03T01:29:20.335Z,40.60
2019-04-03T01:31:50.423Z,40.60
2019-04-03T01:34:20.752Z,40.60
2019-04-03T01:36:51.287Z,40.70
2019-04-03T01:39:21.285Z,40.60
2019-04-03T01:41:52.095Z,40.60
2019-04-03T01:44:24.306Z,40.60
2019-04-03T01:46:57.348Z,40.60
2019-04-03T01:49:28.393Z,40.60
2019-04-03T01:52:00.308Z,40.80
2019-04-03T01:54:33.717Z,40.50
2019-04-03T01:57:06.222Z,40.60
2019-04-03T01:59:37.518Z,40.50
2019-04-03T02:02:09.142Z,40.50
2019-04-03T02:04:39.039Z,40.40
2019-04-03T02:07:09.091Z,40.50
2019-04-03T02:09:39.039Z,40.50
2019-04-03T02:12:08.722Z,40.50
2019-04-03T02:14:38.857Z,40.50
2019-04-03T02:17:09.292Z,40.40
2019-04-03T02:19:38.986Z,40.40
2019-04-03T02:22:10.278Z,40.50
2019-04-03T02:24:40.354Z,40.50
2019-04-03T02:27:10.269Z,40.40
2019-04-03T02:29:40.589Z,40.40
2019-04-03T02:32:10.530Z,40.60
2019-04-03T02:34:41.017Z,40.40
2019-04-03T02:37:11.111Z,40.40
2019-04-03T02:39:41.153Z,40.40
2019-04-03T02:42:11.594Z,40.40
2019-04-03T02:44:41.942Z,40.40
2019-04-03T02:47:11.782Z,40.40
2019-04-03T02:49:43.079Z,40.40
2019-04-03T02:52:13.493Z,40.40
2019-04-03T02:54:43.754Z,40.30
2019-04-03T02:57:16.163Z,40.40
2019-04-03T02:59:45.436Z,40.40
2019-04-03T03:02:15.255Z,41.10
2019-04-03T03:04:45.435Z,40.40
2019-04-03T03:07:36.320Z,40.40
2019-04-03T03:10:07.759Z,40.40
2019-04-03T03:12:38.901Z,40.40
2019-04-03T03:15:12.182Z,40.30
2019-04-03T03:17:40.796Z,40.40
2019-04-03T03:20:10.700Z,40.30
2019-04-03T03:22:41.308Z,40.30
2019-04-03T03:25:11.885Z,40.40
2019-04-03T03:27:42.910Z,40.30
2019-04-03T03:30:33.195Z,40.40
2019-04-03T03:32:45.316Z,40.30
2019-04-03T03:35:22.913Z,40.30
2019-04-03T03:37:47.429Z,40.30
2019-04-03T03:40:18.234Z,40.40
2019-04-03T03:42:48.555Z,40.30
2019-04-03T03:45:20.330Z,40.40
2019-04-03T03:47:50.125Z,40.30
2019-04-03T03:50:25.184Z,40.30
2019-04-03T03:52:55.404Z,40.30
2019-04-03T03:55:26.283Z,40.30
2019-04-03T03:57:56.636Z,40.50
2019-04-03T04:00:27.071Z,40.30
2019-04-03T04:02:57.619Z,40.30
2019-04-03T04:05:27.479Z,40.40
2019-04-03T04:07:59.835Z,40.50
2019-04-03T04:10:29.577Z,40.30
2019-04-03T04:13:00.094Z,40.30
2019-04-03T04:15:31.869Z,40.30
2019-04-03T04:18:01.842Z,40.30
2019-04-03T04:20:34.581Z,40.40
2019-04-03T04:23:04.062Z,40.40
2019-04-03T04:25:34.585Z,40.50
2019-04-03T04:28:04.648Z,40.50
2019-04-03T04:30:34.860Z,40.60
2019-04-03T04:33:04.798Z,40.60
2019-04-03T04:35:34.765Z,40.70
2019-04-03T04:38:04.634Z,40.80
2019-04-03T04:40:34.424Z,40.80
2019-04-03T04:43:04.445Z,41.00
2019-04-03T04:45:36.983Z,40.90
2019-04-03T04:48:06.790Z,40.90
2019-04-03T04:50:36.592Z,41.00
2019-04-03T04:53:06.766Z,41.10
2019-04-03T04:55:38.775Z,41.10
2019-04-03T04:58:11.253Z,41.10
2019-04-03T05:00:40.501Z,41.20
2019-04-03T05:03:14.294Z,41.20
2019-04-03T05:05:44.264Z,41.30
2019-04-03T05:08:14.329Z,41.30
2019-04-03T05:10:45.025Z,41.40
2019-04-03T05:13:16.245Z,41.40
2019-04-03T05:15:46.486Z,41.40
2019-04-03T05:18:16.788Z,41.40
2019-04-03T05:20:49.082Z,41.50
2019-04-03T05:23:19.303Z,41.50
2019-04-03T05:25:49.670Z,41.50
2019-04-03T05:28:19.560Z,41.50
2019-04-03T05:30:49.435Z,41.50
2019-04-03T05:33:19.676Z,41.50
2019-04-03T05:35:49.906Z,41.60
2019-04-03T05:38:22.491Z,41.50
2019-04-03T05:40:51.763Z,41.50
2019-04-03T05:43:21.992Z,41.50
2019-04-03T05:45:52.080Z,41.50
2019-04-03T05:48:22.552Z,41.50
2019-04-03T05:50:53.160Z,42.30
2019-04-03T05:53:23.011Z,41.50
2019-04-03T05:55:53.289Z,41.50
2019-04-03T05:58:23.149Z,41.50
2019-04-03T06:01:04.149Z,41.60
2019-04-03T06:03:37.951Z,41.50
2019-04-03T06:05:58.601Z,41.50
2019-04-03T06:08:28.777Z,41.50
2019-04-03T06:10:58.719Z,41.50
2019-04-03T06:13:29.216Z,41.50
2019-04-03T06:15:59.430Z,41.50
2019-04-03T06:18:31.560Z,41.50
2019-04-03T06:21:01.731Z,41.50
2019-04-03T06:23:32.269Z,41.40
2019-04-03T06:26:02.752Z,41.50
2019-04-03T06:28:33.374Z,41.50
2019-04-03T06:31:03.672Z,41.50
2019-04-03T06:33:35.046Z,41.40
2019-04-03T06:36:05.062Z,41.50
2019-04-03T06:38:35.662Z,41.40
2019-04-03T06:41:07.807Z,41.40
2019-04-03T06:43:37.952Z,41.40
2019-04-03T06:46:07.956Z,41.40
2019-04-03T06:48:38.543Z,41.50
2019-04-03T06:51:08.802Z,41.40
2019-04-03T06:53:39.171Z,41.40
2019-04-03T06:56:09.741Z,41.30
2019-04-03T06:58:40.224Z,41.30
2019-04-03T07:01:10.603Z,41.30
2019-04-03T07:03:41.189Z,41.30
2019-04-03T07:06:13.694Z,41.40
2019-04-03T07:08:43.851Z,41.30
2019-04-03T07:11:23.136Z,41.30
2019-04-03T07:13:47.128Z,41.40
2019-04-03T07:16:17.221Z,41.30
2019-04-03T07:18:47.305Z,41.30
2019-04-03T07:21:18.425Z,41.30
2019-04-03T07:23:48.476Z,41.40
2019-04-03T07:26:18.473Z,41.50
2019-04-03T07:28:48.341Z,41.30
2019-04-03T07:31:18.195Z,41.40
2019-04-03T07:33:48.382Z,41.40
2019-04-03T07:36:19.002Z,41.40
2019-04-03T07:38:49.892Z,41.40
2019-04-03T07:41:22.044Z,41.30
2019-04-03T07:43:51.383Z,41.30
2019-04-03T07:46:21.074Z,41.40
2019-04-03T07:48:51.465Z,41.20
2019-04-03T07:51:21.536Z,41.30
2019-04-03T07:53:52.042Z,41.30
2019-04-03T07:56:25.532Z,41.30
2019-04-03T07:58:55.510Z,41.20
2019-04-03T08:01:25.374Z,41.20
2019-04-03T08:03:55.590Z,41.20
2019-04-03T08:06:27.135Z,41.40
2019-04-03T08:09:07.935Z,41.30
2019-04-03T08:11:30.712Z,41.30
2019-04-03T08:14:01.560Z,41.20
2019-04-03T08:16:31.338Z,41.20
2019-04-03T08:19:01.526Z,41.20
2019-04-03T08:21:31.358Z,41.20
2019-04-03T08:24:01.841Z,41.20
2019-04-03T08:26:32.174Z,41.20
2019-04-03T08:29:02.773Z,41.20
2019-04-03T08:31:33.033Z,41.90
2019-04-03T08:34:14.678Z,41.10
2019-04-03T08:36:35.285Z,41.10
2019-04-03T08:39:07.458Z,41.10
2019-04-03T08:41:37.904Z,41.10
2019-04-03T08:44:09.117Z,41.10
2019-04-03T08:46:39.213Z,41.10
2019-04-03T08:49:10.906Z,41.10
2019-04-03T08:51:41.348Z,41.10
2019-04-03T08:54:11.348Z,41.10
2019-04-03T08:56:41.521Z,41.00
2019-04-03T08:59:13.482Z,41.10
2019-04-03T09:01:43.806Z,41.10
2019-04-03T09:04:16.228Z,41.10
2019-04-03T09:06:45.691Z,41.00
2019-04-03T09:09:15.510Z,41.00
2019-04-03T09:11:45.699Z,41.00
2019-04-03T09:14:16.203Z,41.10
2019-04-03T09:16:46.469Z,41.10
2019-04-03T09:19:17.623Z,41.10
2019-04-03T09:21:50.743Z,41.10
2019-04-03T09:24:19.497Z,41.10
2019-04-03T09:26:49.925Z,41.20
2019-04-03T09:29:20.050Z,41.00
2019-04-03T09:31:51.481Z,41.10
2019-04-03T09:34:21.861Z,41.10
2019-04-03T09:36:52.054Z,41.10
2019-04-03T09:39:22.302Z,41.10
2019-04-03T09:41:52.025Z,41.00
2019-04-03T09:44:24.391Z,40.90
2019-04-03T09:46:54.089Z,40.90
2019-04-03T09:49:24.591Z,40.90
2019-04-03T09:51:54.587Z,40.90
2019-04-03T09:54:27.281Z,40.90
2019-04-03T09:57:02.961Z,40.90
2019-04-03T09:59:28.230Z,41.00
2019-04-03T10:01:58.371Z,41.00
2019-04-03T10:04:28.159Z,40.90
2019-04-03T10:06:57.989Z,40.70
2019-04-03T10:09:28.192Z,40.80
2019-04-03T10:11:58.268Z,40.70
2019-04-03T10:14:28.913Z,40.80
2019-04-03T10:16:59.919Z,40.70
2019-04-03T10:19:30.211Z,40.90
2019-04-03T10:22:00.313Z,40.80
2019-04-03T10:24:31.095Z,40.70
2019-04-03T10:27:02.004Z,40.70
2019-04-03T10:29:32.230Z,40.70
2019-04-03T10:32:02.207Z,40.70
2019-04-03T10:34:34.833Z,40.70
2019-04-03T10:37:04.282Z,40.80
2019-04-03T10:39:34.100Z,40.70
2019-04-03T10:42:04.259Z,40.70
2019-04-03T10:44:34.224Z,40.80
2019-04-03T10:47:04.153Z,40.70
2019-04-03T10:49:33.954Z,40.80
2019-04-03T10:52:04.092Z,40.80
2019-04-03T10:54:37.360Z,40.80
2019-04-03T10:57:06.432Z,40.80
2019-04-03T10:59:36.423Z,41.00
2019-04-03T11:02:07.556Z,40.90
2019-04-03T11:04:38.804Z,40.80
2019-04-03T11:07:08.488Z,41.00
2019-04-03T11:09:38.503Z,41.00
2019-04-03T11:12:10.210Z,40.90
2019-04-03T11:14:40.136Z,40.90
2019-04-03T11:17:10.461Z,41.00
2019-04-03T11:19:41.226Z,40.90
2019-04-03T11:22:15.625Z,41.00
2019-04-03T11:24:44.077Z,40.90
2019-04-03T11:27:14.113Z,41.00
2019-04-03T11:29:45.340Z,41.00
2019-04-03T11:32:15.353Z,41.00
2019-04-03T11:34:45.576Z,41.00
2019-04-03T11:37:18.520Z,41.00
2019-04-03T11:40:01.401Z,41.20
2019-04-03T11:42:24.878Z,41.10
2019-04-03T11:44:54.226Z,41.10
2019-04-03T11:47:23.975Z,41.00
2019-04-03T11:49:53.825Z,41.00
2019-04-03T11:52:24.212Z,41.00
2019-04-03T11:54:54.841Z,41.00
2019-04-03T11:57:26.738Z,41.00
2019-04-03T11:59:57.074Z,41.00
2019-04-03T12:02:28.536Z,41.00
2019-04-03T12:04:58.814Z,41.00
2019-04-03T12:07:28.778Z,41.00
2019-04-03T12:09:59.497Z,41.00
2019-04-03T12:12:31.108Z,41.00
2019-04-03T12:15:02.242Z,41.00
2019-04-03T12:17:32.544Z,40.90
2019-04-03T12:20:03.158Z,41.00
2019-04-03T12:22:33.334Z,41.00
2019-04-03T12:25:03.362Z,41.00
2019-04-03T12:27:35.523Z,41.70
2019-04-03T12:30:07.211Z,41.00
2019-04-03T12:32:42.959Z,41.00
2019-04-03T12:35:10.773Z,41.00
2019-04-03T12:37:41.324Z,41.00
2019-04-03T12:40:11.589Z,41.00
2019-04-03T12:42:42.204Z,41.00
2019-04-03T12:45:13.286Z,41.00
2019-04-03T12:47:44.638Z,41.00
2019-04-03T12:50:16.205Z,41.00
2019-04-03T12:52:46.304Z,41.00
2019-04-03T12:55:16.166Z,41.00
2019-04-03T12:57:46.147Z,41.10
2019-04-03T13:00:16.309Z,41.10
2019-04-03T13:02:45.965Z,41.10
2019-04-03T13:05:16.420Z,41.00
2019-04-03T13:07:49.288Z,41.10
2019-04-03T13:10:19.431Z,41.00
2019-04-03T13:12:49.245Z,41.10
2019-04-03T13:15:19.420Z,41.00
2019-04-03T13:17:49.257Z,41.00
2019-04-03T13:20:19.023Z,41.20
2019-04-03T13:22:48.777Z,41.10
2019-04-03T13:25:20.605Z,41.10
2019-04-03T13:27:50.996Z,41.10
2019-04-03T13:30:22.263Z,41.10
2019-04-03T13:32:59.767Z,41.20
2019-04-03T13:35:24.391Z,41.10
2019-04-03T13:37:56.108Z,41.10
2019-04-03T13:40:26.701Z,41.10
2019-04-03T13:42:57.409Z,41.00
2019-04-03T13:45:27.301Z,41.00
2019-04-03T13:47:57.532Z,41.00
2019-04-03T13:50:28.212Z,41.10
2019-04-03T13:52:59.737Z,41.10
2019-04-03T13:55:33.785Z,41.10
2019-04-03T13:58:01.218Z,41.10
2019-04-03T14:00:33.826Z,41.10
2019-04-03T14:03:04.035Z,41.00
2019-04-03T14:05:34.876Z,41.00
2019-04-03T14:08:06.795Z,41.10
2019-04-03T14:10:36.473Z,40.90
2019-04-03T14:13:07.017Z,40.90
2019-04-03T14:15:36.996Z,40.90
2019-04-03T14:18:07.762Z,40.90
2019-04-03T14:20:39.271Z,41.00
2019-04-03T14:23:09.063Z,41.00
2019-04-03T14:25:40.957Z,41.00
2019-04-03T14:28:10.756Z,41.10
2019-04-03T14:30:40.676Z,41.20
2019-04-03T14:33:12.422Z,41.80
2019-04-03T14:35:50.340Z,41.20
2019-04-03T14:38:53.759Z,41.20
2019-04-03T14:41:24.077Z,41.50
2019-04-03T14:43:54.203Z,41.30
2019-04-03T14:46:24.895Z,42.00
2019-04-03T14:48:56.454Z,41.20
2019-04-03T14:51:27.181Z,41.10
2019-04-03T14:53:57.777Z,41.10
2019-04-03T14:56:32.153Z,41.10
2019-04-03T14:59:00.189Z,41.10
2019-04-03T15:01:30.956Z,41.30
2019-04-03T15:04:02.265Z,41.20
2019-04-03T15:06:32.493Z,41.20
2019-04-03T15:09:02.446Z,41.90
2019-04-03T15:11:34.931Z,41.10
2019-04-03T15:14:05.658Z,41.10
2019-04-03T15:16:35.816Z,41.10
2019-04-03T15:19:06.030Z,41.10
2019-04-03T15:21:36.461Z,41.10
2019-04-03T15:24:06.951Z,41.10
2019-04-03T15:26:37.285Z,41.10
2019-04-03T15:29:07.318Z,41.10
2019-04-03T15:31:38.077Z,41.10
2019-04-03T15:34:08.714Z,41.10
2019-04-03T15:36:39.002Z,41.10
2019-04-03T15:39:12.916Z,41.00
2019-04-03T15:41:43.537Z,41.00
2019-04-03T15:44:14.034Z,41.10
2019-04-03T15:46:44.190Z,41.10
2019-04-03T15:49:14.408Z,41.00
2019-04-03T15:51:44.773Z,41.10
2019-04-03T15:54:14.689Z,41.20
2019-04-03T15:56:45.775Z,41.10
2019-04-03T15:59:17.408Z,41.10
2019-04-03T16:01:48.856Z,41.20
2019-04-03T16:04:19.416Z,41.30
2019-04-03T16:06:49.538Z,41.30
2019-04-03T16:09:20.075Z,41.30
2019-04-03T16:11:50.451Z,41.30
2019-04-03T16:14:23.370Z,41.40
2019-04-03T16:16:53.952Z,41.50
2019-04-03T16:19:24.781Z,41.50
2019-04-03T16:21:57.313Z,41.50
2019-04-03T16:24:27.042Z,41.50
2019-04-03T16:26:57.665Z,41.70
2019-04-03T16:29:30.110Z,41.80
2019-04-03T16:31:59.589Z,41.70
2019-04-03T16:34:30.074Z,41.70
2019-04-03T16:37:00.388Z,41.60
2019-04-03T16:39:32.532Z,41.70
2019-04-03T16:42:05.482Z,41.70
2019-04-03T16:44:36.643Z,41.70
2019-04-03T16:47:06.799Z,41.70
2019-04-03T16:49:36.996Z,41.70
2019-04-03T16:52:07.037Z,41.70
2019-04-03T16:54:37.152Z,41.70
2019-04-03T16:57:07.276Z,41.70
2019-04-03T16:59:38.009Z,41.80
2019-04-03T17:02:07.942Z,41.70
2019-04-03T17:04:38.740Z,41.90
2019-04-03T17:07:09.138Z,41.70
2019-04-03T17:09:39.510Z,41.70
2019-04-03T17:12:09.442Z,42.00
2019-04-03T17:14:40.045Z,42.10
2019-04-03T17:17:13.970Z,42.10
2019-04-03T17:19:42.330Z,42.40
2019-04-03T17:22:12.287Z,42.30
2019-04-03T17:24:46.423Z,42.30
2019-04-03T17:27:17.589Z,42.30
2019-04-03T17:29:48.129Z,42.30
2019-04-03T17:32:33.341Z,42.30
2019-04-03T17:35:06.284Z,42.40
2019-04-03T17:37:35.125Z,42.70
2019-04-03T17:40:07.126Z,42.60
2019-04-03T17:42:38.971Z,42.50
2019-04-03T17:45:11.293Z,42.50
2019-04-03T17:47:41.571Z,42.50
2019-04-03T17:50:11.671Z,42.60
2019-04-03T17:52:41.640Z,42.50
2019-04-03T17:55:12.217Z,42.60
2019-04-03T17:57:44.536Z,42.60
2019-04-03T18:00:15.916Z,42.70
2019-04-03T18:02:46.009Z,42.80
2019-04-03T18:05:16.649Z,42.80
2019-04-03T18:07:47.622Z,42.80
2019-04-03T18:10:17.724Z,42.80
2019-04-03T18:12:48.076Z,42.80
2019-04-03T18:15:18.372Z,42.70
2019-04-03T18:17:49.231Z,42.70
2019-04-03T18:20:19.317Z,42.70
2019-04-03T18:22:51.030Z,42.60
2019-04-03T18:26:06.629Z,43.30
2019-04-03T18:28:39.260Z,42.50
2019-04-03T18:31:18.937Z,42.50
2019-04-03T18:33:49.317Z,42.40
2019-04-03T18:36:19.251Z,42.30
2019-04-03T18:38:49.353Z,42.20
2019-04-03T18:41:19.252Z,42.10
2019-04-03T18:43:49.256Z,42.10
2019-04-03T18:46:31.273Z,42.00
2019-04-03T18:48:53.792Z,41.80
2019-04-03T18:51:22.167Z,41.90
2019-04-03T18:53:52.341Z,41.90
2019-04-03T18:56:22.646Z,41.70
2019-04-03T18:58:53.086Z,41.70
2019-04-03T19:01:25.565Z,41.60
2019-04-03T19:03:55.418Z,41.60
2019-04-03T19:06:26.074Z,41.60
2019-04-03T19:08:55.946Z,42.20
2019-04-03T19:11:26.012Z,42.30
2019-04-03T19:13:56.223Z,42.10
2019-04-03T19:16:29.825Z,42.20
2019-04-03T19:19:07.487Z,42.30
2019-04-03T19:21:29.685Z,42.30
2019-04-03T19:23:59.596Z,42.20
2019-04-03T19:26:30.046Z,42.30
2019-04-03T19:29:04.753Z,42.10
2019-04-03T19:31:33.810Z,42.20
2019-04-03T19:34:03.937Z,42.10
2019-04-03T19:36:34.153Z,42.20
2019-04-03T19:39:06.574Z,42.20
2019-04-03T19:41:37.061Z,42.20
2019-04-03T19:44:07.003Z,42.10
2019-04-03T19:46:37.594Z,42.10
2019-04-03T19:49:07.576Z,42.00
2019-04-03T19:51:37.991Z,42.00
2019-04-03T19:54:08.231Z,41.90
2019-04-03T19:56:39.086Z,41.90
2019-04-03T19:59:09.354Z,41.70
2019-04-03T20:01:39.571Z,41.70
2019-04-03T20:04:09.784Z,41.80
2019-04-03T20:06:41.238Z,41.80
2019-04-03T20:09:11.547Z,41.70
2019-04-03T20:11:41.544Z,41.60
2019-04-03T20:14:12.441Z,41.50
2019-04-03T20:16:42.376Z,41.50
2019-04-03T20:19:12.728Z,41.40
2019-04-03T20:21:42.582Z,41.40
2019-04-03T20:24:13.395Z,41.30
2019-04-03T20:26:46.306Z,41.90
2019-04-03T20:29:16.053Z,41.20
2019-04-03T20:31:46.512Z,41.20
2019-04-03T20:34:16.458Z,42.10
2019-04-03T20:36:46.746Z,41.40
2019-04-03T20:39:17.230Z,41.10
2019-04-03T20:41:47.040Z,41.20
2019-04-03T20:44:17.553Z,41.20
2019-04-03T20:46:47.699Z,41.00
2019-04-03T20:49:18.908Z,41.00
2019-04-03T20:51:49.376Z,41.00
2019-04-03T20:54:21.354Z,41.00
2019-04-03T20:56:57.619Z,41.00
2019-04-03T20:59:23.771Z,41.00
2019-04-03T21:01:54.364Z,41.00
2019-04-03T21:04:24.290Z,40.90
2019-04-03T21:06:54.597Z,41.00
2019-04-03T21:09:25.891Z,40.90
2019-04-03T21:11:55.777Z,40.90
2019-04-03T21:14:26.536Z,40.90
2019-04-03T21:16:56.714Z,40.90
2019-04-03T21:19:27.439Z,40.80
2019-04-03T21:21:57.696Z,40.80
2019-04-03T21:24:30.230Z,40.90
2019-04-03T21:27:00.185Z,40.80
2019-04-03T21:29:30.111Z,40.80
2019-04-03T21:32:00.152Z,40.80
2019-04-03T21:34:32.527Z,40.80
2019-04-03T21:37:02.869Z,40.70
2019-04-03T21:39:33.943Z,40.80
2019-04-03T21:42:04.449Z,40.80
2019-04-03T21:44:34.867Z,40.70
2019-04-03T21:47:04.672Z,40.80
2019-04-03T21:49:34.634Z,40.70
2019-04-03T21:52:04.568Z,40.70
2019-04-03T21:54:34.559Z,40.70
2019-04-03T21:57:06.794Z,40.70
2019-04-03T21:59:36.289Z,40.80
2019-04-03T22:02:06.725Z,40.70
2019-04-03T22:04:37.691Z,40.70
2019-04-03T22:07:07.935Z,40.80
2019-04-03T22:09:37.893Z,40.60
2019-04-03T22:12:07.995Z,40.60
2019-04-03T22:14:38.277Z,40.70
2019-04-03T22:17:08.354Z,40.70
2019-04-03T22:19:39.705Z,40.70
2019-04-03T22:22:10.022Z,40.70
2019-04-03T22:24:39.997Z,40.70
2019-04-03T22:27:11.376Z,40.70
2019-04-03T22:29:41.286Z,40.60
2019-04-03T22:32:11.171Z,40.70
2019-04-03T22:34:41.634Z,40.70
2019-04-03T22:37:11.556Z,40.70
2019-04-03T22:39:42.163Z,40.60
2019-04-03T22:42:14.608Z,40.70
2019-04-03T22:44:44.147Z,40.70
2019-04-03T22:47:14.009Z,40.60
2019-04-03T22:49:44.914Z,40.60
2019-04-03T22:52:15.575Z,40.80
2019-04-03T22:54:45.594Z,40.80
2019-04-03T22:57:15.776Z,40.70
2019-04-03T22:59:46.021Z,40.80
2019-04-03T23:02:16.235Z,41.50
2019-04-03T23:04:47.827Z,40.70
2019-04-03T23:07:20.588Z,40.80
2019-04-03T23:09:49.081Z,40.70
2019-04-03T23:12:19.332Z,40.70
2019-04-03T23:14:49.646Z,40.70
2019-04-03T23:17:19.819Z,40.90
2019-04-03T23:19:51.656Z,40.70
2019-04-03T23:22:23.927Z,40.90
2019-04-03T23:24:53.892Z,40.60
2019-04-03T23:27:24.492Z,40.60
2019-04-03T23:29:54.877Z,40.50
2019-04-03T23:32:24.856Z,40.80
2019-04-03T23:34:56.277Z,40.50
2019-04-03T23:37:26.084Z,40.70
2019-04-03T23:39:56.071Z,40.60
2019-04-03T23:42:26.288Z,40.60
2019-04-03T23:44:56.628Z,40.60
2019-04-03T23:47:27.172Z,40.60
2019-04-03T23:49:57.467Z,40.00
2019-04-03T23:52:29.642Z,40.70
2019-04-03T23:54:58.918Z,40.50
2019-04-03T23:57:28.942Z,40.50
2019-04-03T23:59:59.300Z,40.50
